Time;durP1;ratioP1;P1;durP2;ratioP2;P2;SDS_P1;SDS_P2;PMS_P1;PMS_P2;Temp;Humidity;BMP_temperature;BMP_pressure;BME280_temperature;BME280_humidity;BME280_pressure;Samples;Min_cycle;Max_cycle;Signal;HPM_P1;HPM_P2
2022/08/04 00:00:13;;;;;;;0.93;0.93;;;;;;;21.91;66.51;101170.53;4973201;28;20081;-85
2022/08/04 00:02:51;;;;;;;1.80;1.40;;;;;;;21.86;66.31;101168.16;4973409;28;20023;-85
2022/08/04 00:05:51;;;;;;;0.90;0.90;;;;;;;21.82;67.09;101163.16;4973478;28;20038;-85
2022/08/04 00:08:33;;;;;;;1.02;1.02;;;;;;;21.75;67.20;101158.19;4973003;28;20366;-85
2022/08/04 00:11:00;;;;;;;1.10;1.10;;;;;;;21.69;66.96;101162.97;4975017;28;20035;-85
2022/08/04 00:13:26;;;;;;;;;;;;;;;21.65;67.37;101164.13;4977608;28;20037;-85
2022/08/04 00:15:54;;;;;;;1.50;1.38;;;;;;;21.59;68.09;101158.22;4975802;28;20000;-85
2022/08/04 00:18:26;;;;;;;1.25;1.20;;;;;;;21.53;67.04;101153.28;4957566;29;20062;-85
2022/08/04 00:20:58;;;;;;;1.15;1.08;;;;;;;21.48;67.98;101149.19;4957369;29;20032;-85
2022/08/04 00:23:25;;;;;;;0.90;0.90;;;;;;;21.43;67.68;101155.56;4968950;28;20035;-85
2022/08/04 00:25:52;;;;;;;1.10;1.10;;;;;;;21.39;67.51;101150.56;4976726;28;20031;-86
2022/08/04 00:28:27;;;;;;;1.00;1.00;;;;;;;21.35;68.72;101154.28;4976816;28;20031;-85
2022/08/04 00:30:53;;;;;;;0.82;0.82;;;;;;;21.28;67.83;101151.13;4975848;28;20502;-85
2022/08/04 00:33:29;;;;;;;1.27;1.17;;;;;;;21.23;67.81;101146.13;4976882;28;20030;-85
2022/08/04 00:35:56;;;;;;;1.40;1.30;;;;;;;21.17;68.19;101145.63;4976832;28;20317;-85
2022/08/04 00:38:34;;;;;;;1.25;1.20;;;;;;;21.14;68.46;101136.94;4976152;28;20037;-85
2022/08/04 00:41:25;;;;;;;1.30;1.30;;;;;;;21.09;68.19;101136.34;4976356;28;20440;-85
2022/08/04 00:44:07;;;;;;;1.30;1.20;;;;;;;21.05;69.80;101139.22;4975375;28;20045;-85
2022/08/04 00:47:03;;;;;;;1.10;1.10;;;;;;;20.99;68.77;101127.22;4976594;28;20037;-85
2022/08/04 00:49:34;;;;;;;;;;;;;;;20.97;68.87;101131.72;4977373;28;20035;-85
2022/08/04 00:52:16;;;;;;;1.30;1.20;;;;;;;20.90;68.70;101133.00;4975785;28;20286;-85
2022/08/04 00:55:15;;;;;;;1.42;1.33;;;;;;;20.85;70.07;101133.25;4976365;28;20042;-85
2022/08/04 00:57:50;;;;;;;1.15;1.05;;;;;;;20.77;70.11;101131.03;4975975;28;20089;-85
2022/08/04 01:00:16;;;;;;;1.45;1.35;;;;;;;20.73;69.25;101126.81;4976260;28;20055;-85
2022/08/04 01:02:47;;;;;;;1.40;1.30;;;;;;;20.73;69.46;101129.44;4976325;28;20497;-85
2022/08/04 01:05:26;;;;;;;1.25;1.17;;;;;;;20.71;69.38;101130.47;4975348;28;20031;-85
2022/08/04 01:08:04;;;;;;;1.30;1.20;;;;;;;20.70;69.12;101118.22;4975397;28;20058;-85
2022/08/04 01:10:47;;;;;;;1.60;1.40;;;;;;;20.68;70.48;101128.88;4975908;28;20491;-85
2022/08/04 01:13:38;;;;;;;1.42;1.33;;;;;;;20.66;69.47;101117.53;4975245;28;20471;-85
2022/08/04 01:16:10;;;;;;;1.10;1.10;;;;;;;20.62;69.83;101121.25;4976117;28;20046;-85
2022/08/04 01:19:03;;;;;;;1.17;1.17;;;;;;;20.58;70.67;101119.75;4975441;28;20046;-85
2022/08/04 01:21:34;;;;;;;1.30;1.20;;;;;;;20.52;69.52;101111.22;4975048;28;20468;-85
2022/08/04 01:24:40;;;;;;;1.35;1.20;;;;;;;20.50;70.64;101112.22;4975328;28;20030;-85
2022/08/04 01:27:17;;;;;;;1.50;1.40;;;;;;;20.46;70.05;101108.91;4896345;29;20462;-86
2022/08/04 01:29:47;;;;;;;;;;;;;;;20.44;70.49;101109.91;4968765;28;20125;-85
2022/08/04 01:32:24;;;;;;;0.95;0.95;;;;;;;20.39;70.43;101110.16;4975197;28;19957;-85
2022/08/04 01:35:01;;;;;;;1.40;1.30;;;;;;;20.35;69.83;101101.56;4975161;28;20399;-85
2022/08/04 01:37:59;;;;;;;1.92;1.45;;;;;;;20.35;70.24;101100.72;4976317;28;20026;-85
2022/08/04 01:40:26;;;;;;;1.58;1.45;;;;;;;20.36;70.29;101100.63;4974716;28;20019;-85
2022/08/04 01:42:53;;;;;;;1.55;1.45;;;;;;;20.39;70.03;101098.75;4975392;28;20034;-84
2022/08/04 01:45:19;;;;;;;1.63;1.42;;;;;;;20.40;70.04;101096.03;4975528;28;20031;-85
2022/08/04 01:47:52;;;;;;;1.83;1.43;;;;;;;20.43;69.80;101093.25;4974863;28;20043;-85
2022/08/04 01:50:17;;;;;;;1.50;1.40;;;;;;;20.45;70.52;101088.75;4975491;28;20038;-85
2022/08/04 01:52:44;;;;;;;1.83;1.50;;;;;;;20.47;70.54;101088.66;4975185;28;20395;-85
2022/08/04 01:55:12;;;;;;;1.30;1.23;;;;;;;20.50;70.23;101091.97;4974356;28;20390;-85
2022/08/04 01:57:43;;;;;;;2.28;1.50;;;;;;;20.50;70.33;101091.97;4975342;28;20026;-85
2022/08/04 02:00:11;;;;;;;1.50;1.40;;;;;;;20.52;70.06;101095.38;4974531;28;20464;-85
2022/08/04 02:02:36;;;;;;;1.48;1.38;;;;;;;20.56;69.84;101089.97;4974886;28;20102;-85
2022/08/04 02:05:01;;;;;;;1.50;1.40;;;;;;;20.57;69.95;101089.03;4974914;28;20069;-85
2022/08/04 02:07:39;;;;;;;1.80;1.70;;;;;;;20.56;69.69;101084.69;4972892;28;20491;-85
2022/08/04 02:10:07;;;;;;;2.17;1.70;;;;;;;20.55;69.92;101086.47;4973958;28;20034;-84
2022/08/04 02:12:51;;;;;;;1.85;1.58;;;;;;;20.53;69.59;101083.06;4974408;28;20483;-85
2022/08/04 02:15:25;;;;;;;1.70;1.50;;;;;;;20.53;69.57;101080.44;4974571;28;20035;-85
2022/08/04 02:18:01;;;;;;;1.73;1.52;;;;;;;20.51;69.66;101074.41;4974250;28;20074;-85
2022/08/04 02:20:34;;;;;;;1.92;1.58;;;;;;;20.49;69.26;101074.47;4974664;28;20078;-85
2022/08/04 02:23:06;;;;;;;1.42;1.33;;;;;;;20.49;69.09;101065.72;4973809;28;20031;-85
2022/08/04 02:25:59;;;;;;;1.30;1.20;;;;;;;20.47;69.32;101068.44;4975013;28;20027;-85
2022/08/04 02:28:37;;;;;;;1.45;1.35;;;;;;;20.45;69.78;101070.31;4974716;28;20030;-85
2022/08/04 02:31:26;;;;;;;1.10;1.10;;;;;;;20.40;69.36;101067.03;4974355;28;20034;-85
2022/08/04 02:34:15;;;;;;;1.20;1.20;;;;;;;20.39;68.84;101067.13;4974381;28;20023;-85
2022/08/04 02:36:42;;;;;;;2.83;1.85;;;;;;;20.33;69.24;101069.16;4973896;28;20027;-85
2022/08/04 02:39:10;;;;;;;1.50;1.40;;;;;;;20.29;69.49;101062.34;4973898;28;20035;-85
2022/08/04 02:41:36;;;;;;;3.30;1.70;;;;;;;20.27;69.83;101069.50;4974498;28;20030;-85
2022/08/04 02:44:06;;;;;;;;;;;;;;;20.24;69.96;101066.16;4973982;28;20486;-85
2022/08/04 02:46:33;;;;;;;1.10;1.10;;;;;;;20.17;70.77;101061.19;4973937;28;19914;-86
2022/08/04 02:49:04;;;;;;;1.40;1.30;;;;;;;20.11;70.00;101058.91;4973840;28;20034;-85
2022/08/04 02:51:35;;;;;;;1.75;1.33;;;;;;;20.08;70.87;101051.16;4973764;28;20023;-85
2022/08/04 02:54:03;;;;;;;1.20;1.10;;;;;;;20.05;71.60;101059.19;4973917;28;20109;-86
2022/08/04 02:56:31;;;;;;;1.23;1.15;;;;;;;20.03;69.84;101048.75;4973863;28;20026;-85
2022/08/04 02:59:01;;;;;;;1.10;1.08;;;;;;;20.00;70.65;101051.53;4973377;28;20049;-86
2022/08/04 03:01:26;;;;;;;1.15;1.08;;;;;;;19.97;70.35;101046.47;4973900;28;20051;-86
2022/08/04 03:03:58;;;;;;;0.93;0.93;;;;;;;19.97;70.46;101049.09;4973171;28;20097;-85
2022/08/04 03:06:47;;;;;;;1.27;1.10;;;;;;;19.95;70.35;101039.53;4973762;28;20110;-85
2022/08/04 03:09:19;;;;;;;1.33;1.17;;;;;;;19.95;69.94;101036.91;4973862;28;20077;-85
2022/08/04 03:11:44;;;;;;;1.30;1.20;;;;;;;19.95;70.39;101040.41;4973635;28;20376;-85
2022/08/04 03:14:34;;;;;;;1.53;1.17;;;;;;;19.97;70.42;101035.03;4973399;28;20023;-85
2022/08/04 03:17:28;;;;;;;1.00;1.00;;;;;;;19.98;69.67;101032.34;4973734;28;20039;-85
2022/08/04 03:20:54;;;;;;;1.00;1.00;;;;;;;20.02;70.21;101033.88;4973344;28;20031;-85
2022/08/04 03:23:35;;;;;;;1.05;1.05;;;;;;;20.04;69.99;101041.72;4876546;29;20037;-85
2022/08/04 03:26:19;;;;;;;0.93;0.93;;;;;;;20.02;70.30;101052.31;4875999;29;20037;-86
2022/08/04 03:29:11;;;;;;;1.10;1.00;;;;;;;20.00;70.35;101053.34;4958950;28;20514;-85
2022/08/04 03:32:00;;;;;;;1.02;0.98;;;;;;;19.98;70.74;101061.34;4973686;28;20033;-85
2022/08/04 03:35:02;;;;;;;0.75;0.75;;;;;;;19.95;71.90;101058.84;4974556;28;20197;-85
2022/08/04 03:38:05;;;;;;;1.15;1.05;;;;;;;19.90;70.20;101051.19;4968625;28;20157;-85
2022/08/04 03:40:35;;;;;;;1.70;1.10;;;;;;;19.89;70.61;101043.34;4974409;28;20432;-86
2022/08/04 03:43:31;;;;;;;1.40;1.30;;;;;;;19.85;71.29;101033.88;4990208;28;20109;-85
2022/08/04 03:46:26;;;;;;;7.38;2.60;;;;;;;19.82;72.48;101037.50;4976101;28;20392;-85
2022/08/04 03:49:00;;;;;;;2.85;2.00;;;;;;;19.89;71.35;101044.22;4983481;28;20510;-85
2022/08/04 03:55:03;;;;;;;2.13;1.63;;;;;;;19.96;70.98;101050.00;4977172;28;20170;-85
2022/08/04 03:58:02;;;;;;;1.55;1.45;;;;;;;19.97;70.60;101051.72;4977740;28;20049;-85
2022/08/04 04:00:57;;;;;;;1.50;1.30;;;;;;;19.96;70.62;101070.22;4976657;28;20081;-86
2022/08/04 04:03:49;;;;;;;1.50;1.40;;;;;;;19.89;72.94;101073.19;4976923;28;20031;-86
2022/08/04 04:06:33;;;;;;;3.75;1.80;;;;;;;19.87;71.81;101068.94;4977407;28;20027;-85
2022/08/04 04:09:19;;;;;;;2.63;1.63;;;;;;;19.86;72.76;101075.97;4976229;28;20107;-85
2022/08/04 04:12:00;;;;;;;4.13;2.20;;;;;;;19.83;72.96;101076.06;4977429;28;20027;-86
2022/08/04 04:14:42;;;;;;;2.15;1.95;;;;;;;19.84;72.89;101077.78;4976828;28;20026;-86
2022/08/04 04:17:16;;;;;;;1.98;1.60;;;;;;;19.83;72.80;101075.25;4972219;28;20069;-86
2022/08/04 04:20:25;;;;;;;1.50;1.40;;;;;;;19.83;72.38;101076.06;4977196;28;20026;-86
2022/08/04 04:23:04;;;;;;;1.63;1.50;;;;;;;19.84;72.34;101075.16;4976263;28;20030;-85
2022/08/04 04:25:44;;;;;;;1.58;1.45;;;;;;;19.84;71.90;101075.16;4976888;28;20034;-85
2022/08/04 04:28:34;;;;;;;1.52;1.42;;;;;;;19.86;71.62;101070.69;4976382;28;20035;-85
2022/08/04 04:31:20;;;;;;;1.92;1.30;;;;;;;19.89;71.46;101078.44;4976947;28;20030;-85
2022/08/04 04:33:51;;;;;;;1.40;1.30;;;;;;;19.90;71.44;101077.53;4976619;28;20027;-86
2022/08/04 04:36:28;;;;;;;1.38;1.30;;;;;;;19.90;71.37;101081.91;4976278;28;20026;-86
2022/08/04 04:39:27;;;;;;;1.60;1.50;;;;;;;19.92;71.76;101084.50;4976278;28;20027;-85
2022/08/04 04:42:30;;;;;;;1.50;1.40;;;;;;;19.92;71.55;101085.34;4976498;28;20038;-86
2022/08/04 04:45:11;;;;;;;1.50;1.40;;;;;;;19.93;71.82;101084.41;4976466;28;20117;-86
2022/08/04 04:48:12;;;;;;;2.33;1.35;;;;;;;19.94;71.89;101078.22;4977105;28;20070;-85
2022/08/04 04:50:46;;;;;;;1.35;1.15;;;;;;;19.96;71.90;101080.75;4976019;28;20027;-85
2022/08/04 04:53:34;;;;;;;1.35;1.25;;;;;;;20.00;71.98;101082.31;4976212;28;20117;-85
2022/08/04 04:56:07;;;;;;;1.50;1.40;;;;;;;20.06;71.66;101076.72;4976258;28;20023;-85
2022/08/04 04:58:34;;;;;;;1.67;1.33;;;;;;;20.11;71.53;101082.63;4975631;28;20046;-85
2022/08/04 05:01:10;;;;;;;1.30;1.30;;;;;;;20.18;71.79;101085.78;4975447;28;20047;-85
2022/08/04 05:03:44;;;;;;;1.30;1.20;;;;;;;20.23;71.88;101083.75;4975683;28;20083;-86
2022/08/04 05:06:44;;;;;;;1.50;1.40;;;;;;;20.29;71.75;101091.34;4976302;28;20035;-85
2022/08/04 05:09:33;;;;;;;1.50;1.40;;;;;;;20.36;71.71;101100.63;4975596;28;20565;-84
2022/08/04 05:11:59;;;;;;;1.30;1.20;;;;;;;20.42;71.71;101099.44;4974688;28;20081;-83
2022/08/04 05:14:30;;;;;;;1.10;1.00;;;;;;;20.44;72.59;101094.09;4976351;28;20054;-87
2022/08/04 05:17:03;;;;;;;1.08;1.08;;;;;;;20.43;72.42;101087.13;4976003;28;20027;-86
2022/08/04 05:19:51;;;;;;;1.58;1.20;;;;;;;20.45;72.44;101093.16;4975545;28;20484;-85
2022/08/04 05:22:41;;;;;;;0.90;0.90;;;;;;;20.45;72.47;101078.22;4976406;28;20025;-85
2022/08/04 05:25:15;;;;;;;1.00;1.00;;;;;;;20.49;72.37;101084.16;4975232;28;20157;-85
2022/08/04 05:27:47;;;;;;;1.30;1.15;;;;;;;20.55;72.16;101096.16;4975245;28;20368;-85
2022/08/04 05:30:14;;;;;;;1.00;1.00;;;;;;;20.62;72.29;101098.41;4975552;28;20053;-86
2022/08/04 05:32:59;;;;;;;1.00;1.00;;;;;;;20.69;72.04;101093.66;4974949;28;20026;-86
2022/08/04 05:35:32;;;;;;;1.63;0.93;;;;;;;20.75;72.37;101098.59;4975941;28;20034;-83
2022/08/04 05:38:02;;;;;;;0.88;0.88;;;;;;;20.80;72.86;101093.09;4975081;28;20495;-82
2022/08/04 05:40:28;;;;;;;0.80;0.80;;;;;;;20.86;72.75;101091.91;4974350;28;20037;-82
2022/08/04 05:42:55;;;;;;;0.70;0.70;;;;;;;20.91;72.83;101093.34;4974738;28;20034;-83
2022/08/04 05:45:22;;;;;;;1.08;1.08;;;;;;;20.98;72.33;101085.94;4975217;28;20019;-83
2022/08/04 05:47:48;;;;;;;2.45;1.10;;;;;;;21.04;72.91;101080.34;4974498;28;20074;-83
2022/08/04 05:50:14;;;;;;;1.25;1.15;;;;;;;21.12;72.62;101080.75;4975694;28;20058;-83
2022/08/04 05:52:41;;;;;;;2.53;1.00;;;;;;;21.19;72.39;101072.47;4974725;28;20026;-83
2022/08/04 05:55:11;;;;;;;1.10;1.10;;;;;;;21.27;72.93;101081.69;4974804;28;20023;-83
2022/08/04 05:57:39;;;;;;;1.00;1.00;;;;;;;21.33;72.38;101075.19;4975124;28;20395;-83
2022/08/04 06:00:05;;;;;;;1.20;1.10;;;;;;;21.39;72.59;101080.13;4974041;28;20599;-84
2022/08/04 06:02:33;;;;;;;0.95;0.90;;;;;;;21.47;73.50;101076.19;4975448;28;20431;-84
2022/08/04 06:05:00;;;;;;;1.45;1.00;;;;;;;21.51;72.62;101068.00;4974403;28;20456;-83
2022/08/04 06:07:41;;;;;;;0.95;0.95;;;;;;;21.58;72.55;101074.63;4973925;28;20085;-84
2022/08/04 06:10:07;;;;;;;1.65;1.13;;;;;;;21.63;72.00;101081.47;4974489;28;20019;-83
2022/08/04 06:12:37;;;;;;;1.30;1.20;;;;;;;21.70;72.10;101080.16;4974549;28;20098;-83
2022/08/04 06:15:03;;;;;;;1.65;1.17;;;;;;;21.79;72.56;101084.06;4973622;28;20034;-84
2022/08/04 06:17:31;;;;;;;;;;;;;;;21.85;72.63;101081.91;4974971;28;20038;-80
2022/08/04 06:19:58;;;;;;;1.40;1.30;;;;;;;21.91;72.38;101078.06;4974179;28;19922;-83
2022/08/04 06:22:26;;;;;;;1.08;1.00;;;;;;;21.99;72.56;101086.38;4973235;28;20031;-84
2022/08/04 06:24:54;;;;;;;1.60;1.45;;;;;;;22.05;72.70;101086.03;4974360;28;20101;-84
2022/08/04 06:27:21;;;;;;;1.70;1.60;;;;;;;22.14;73.75;101081.94;4975050;28;20093;-84
2022/08/04 06:29:49;;;;;;;1.30;1.20;;;;;;;22.21;73.04;101082.44;4974021;28;20033;-85
2022/08/04 06:32:26;;;;;;;1.52;1.02;;;;;;;22.33;72.99;101086.13;4974560;28;20034;-84
2022/08/04 06:34:57;;;;;;;1.10;1.10;;;;;;;22.46;72.62;101091.53;4974030;28;20102;-83
2022/08/04 06:37:24;;;;;;;1.95;1.17;;;;;;;22.60;73.78;101094.19;4974749;28;20130;-84
2022/08/04 06:39:51;;;;;;;0.73;0.73;;;;;;;22.69;72.12;101100.69;4974130;28;20029;-84
2022/08/04 06:42:17;;;;;;;;;;;;;;;22.88;71.91;101097.72;4973870;28;20034;-84
2022/08/04 06:44:45;;;;;;;1.13;1.13;;;;;;;23.42;71.06;101110.19;4974686;28;19914;-82
2022/08/04 06:47:11;;;;;;;1.17;1.08;;;;;;;24.13;71.04;101099.34;4974026;28;20035;-83
2022/08/04 06:49:38;;;;;;;4.75;2.30;;;;;;;25.44;68.32;101115.75;4973467;28;20030;-83
2022/08/04 06:52:04;;;;;;;2.10;1.90;;;;;;;27.09;66.52;101114.66;4974249;28;20378;-84
2022/08/04 06:54:30;;;;;;;3.50;2.55;;;;;;;28.46;62.91;101109.50;4974485;28;20035;-84
2022/08/04 06:56:57;;;;;;;2.00;1.80;;;;;;;29.28;60.42;101109.41;4973037;28;20089;-84
2022/08/04 06:59:24;;;;;;;1.70;1.60;;;;;;;29.57;59.10;101108.63;4973555;28;20518;-84
2022/08/04 07:01:51;;;;;;;3.25;2.08;;;;;;;29.57;57.14;101116.63;4973753;28;20054;-84
2022/08/04 07:04:17;;;;;;;1.80;1.70;;;;;;;29.17;57.82;101102.38;4973430;28;20023;-83
2022/08/04 07:06:43;;;;;;;1.90;1.65;;;;;;;28.77;57.40;101112.16;4974194;28;20034;-84
2022/08/04 07:09:09;;;;;;;2.15;1.90;;;;;;;28.30;58.08;101107.31;4973941;28;20495;-84
2022/08/04 07:11:34;;;;;;;1.50;1.40;;;;;;;27.81;58.79;101109.66;4973400;28;20031;-84
2022/08/04 07:14:00;;;;;;;2.75;1.83;;;;;;;27.37;59.00;101116.84;4973685;28;20031;-85
2022/08/04 07:16:27;;;;;;;1.90;1.80;;;;;;;26.91;60.66;101110.81;4973786;28;20471;-86
2022/08/04 07:18:52;;;;;;;2.00;1.80;;;;;;;26.67;61.65;101110.00;4972875;28;20125;-85
2022/08/04 07:21:21;;;;;;;2.43;1.80;;;;;;;26.57;61.85;101110.81;4973430;28;20077;-85
2022/08/04 07:23:51;;;;;;;1.98;1.70;;;;;;;26.42;62.36;101115.56;4973767;28;20057;-85
2022/08/04 07:26:18;;;;;;;2.60;2.10;;;;;;;26.17;62.20;101113.00;4973100;28;20031;-85
2022/08/04 07:28:43;;;;;;;3.05;2.13;;;;;;;25.94;63.23;101117.38;4973971;28;20388;-86
2022/08/04 07:31:16;;;;;;;2.00;1.80;;;;;;;25.75;63.51;101118.78;4972814;28;20070;-86
2022/08/04 07:33:43;;;;;;;2.05;1.85;;;;;;;25.68;63.41;101119.38;4974003;28;20109;-86
2022/08/04 07:36:08;;;;;;;;;;;;;;;25.54;64.22;101131.03;4973876;28;20078;-86
2022/08/04 07:38:33;;;;;;;4.50;2.20;;;;;;;25.39;64.24;101125.84;4972751;28;19918;-85
2022/08/04 07:41:00;;;;;;;7.30;3.40;;;;;;;25.30;62.67;101134.50;4973611;28;20106;-85
2022/08/04 07:43:26;;;;;;;5.13;3.20;;;;;;;25.20;64.51;101122.88;4973419;28;20034;-86
2022/08/04 07:45:51;;;;;;;;;;;;;;;25.28;64.44;101125.78;4973052;28;20480;-86
2022/08/04 07:48:17;;;;;;;6.60;3.40;;;;;;;25.34;63.63;101124.50;4973903;28;19920;-86
2022/08/04 07:50:43;;;;;;;3.83;2.70;;;;;;;25.45;64.39;101124.59;4973719;28;20062;-85
2022/08/04 07:53:11;;;;;;;3.15;2.38;;;;;;;25.66;64.18;101123.94;4972470;28;20132;-85
2022/08/04 07:55:37;;;;;;;3.42;2.53;;;;;;;25.76;62.03;101119.63;4973667;28;20069;-85
2022/08/04 07:58:02;;;;;;;9.80;4.97;;;;;;;25.55;62.79;101124.75;4973295;28;20088;-85
2022/08/04 08:00:28;;;;;;;12.55;5.57;;;;;;;25.31;62.24;101130.91;4972464;28;20602;-85
2022/08/04 08:02:55;;;;;;;6.65;3.90;;;;;;;25.30;64.37;101129.19;4973493;28;20035;-85
2022/08/04 08:05:21;;;;;;;6.55;4.15;;;;;;;25.41;62.86;101131.06;4960551;28;20057;-84
2022/08/04 08:07:49;;;;;;;7.88;3.90;;;;;;;25.46;63.45;101134.25;4961774;28;20063;-85
2022/08/04 08:10:15;;;;;;;4.72;2.97;;;;;;;25.58;63.88;101135.13;4953597;29;20023;-86
2022/08/04 08:12:42;;;;;;;8.55;3.70;;;;;;;25.72;62.82;101137.63;4954358;29;20039;-85
2022/08/04 08:15:08;;;;;;;;;;;;;;;25.78;61.54;101143.44;4953568;29;20062;-85
2022/08/04 08:17:34;;;;;;;10.77;4.78;;;;;;;25.71;62.25;101145.72;4954046;29;19937;-85
2022/08/04 08:20:00;;;;;;;5.22;3.25;;;;;;;25.85;63.72;101144.66;4953368;29;20492;-85
2022/08/04 08:22:27;;;;;;;4.93;2.70;;;;;;;26.03;63.59;101145.09;4953508;29;20025;-87
2022/08/04 08:24:52;;;;;;;3.25;2.55;;;;;;;26.13;63.15;101148.78;4954168;29;20043;-86
2022/08/04 08:27:18;;;;;;;2.47;2.27;;;;;;;26.30;62.00;101154.59;4953254;29;20372;-84
2022/08/04 08:29:43;;;;;;;4.60;3.20;;;;;;;26.39;61.66;101147.72;4953242;29;20334;-84
2022/08/04 08:32:12;;;;;;;3.40;2.47;;;;;;;26.50;62.21;101145.06;4955698;28;20031;-84
2022/08/04 08:34:39;;;;;;;3.65;2.63;;;;;;;26.64;61.90;101149.28;4956943;29;20698;-84
2022/08/04 08:37:11;;;;;;;;;;;;;;;26.75;62.05;101151.13;4957029;29;20033;-85
2022/08/04 08:39:57;;;;;;;5.47;3.38;;;;;;;26.80;59.74;101148.94;4965177;28;19921;-84
2022/08/04 08:42:40;;;;;;;4.18;2.42;;;;;;;26.72;60.16;101154.88;4981533;28;20026;-85
2022/08/04 08:45:11;;;;;;;3.08;2.00;;;;;;;26.63;60.63;101160.91;4971063;28;20117;-85
2022/08/04 08:47:43;;;;;;;1.90;1.80;;;;;;;26.72;61.54;101169.97;4957398;28;20082;-84
2022/08/04 08:50:36;;;;;;;2.92;2.20;;;;;;;26.85;60.27;101177.91;4954769;29;20035;-83
2022/08/04 08:53:21;;;;;;;1.63;1.52;;;;;;;26.91;61.06;101175.56;4955331;29;20027;-84
2022/08/04 08:56:16;;;;;;;1.88;1.77;;;;;;;26.97;58.73;101172.44;4953932;29;20027;-86
2022/08/04 08:58:41;;;;;;;1.52;1.42;;;;;;;27.05;59.97;101178.94;4955051;29;20114;-85
2022/08/04 09:01:31;;;;;;;1.20;1.17;;;;;;;27.12;58.06;101175.66;4955206;29;20094;-84
2022/08/04 09:04:26;;;;;;;4.03;1.70;;;;;;;27.24;58.77;101173.84;4953948;29;20054;-85
2022/08/04 09:07:09;;;;;;;3.40;2.00;;;;;;;27.34;57.77;101176.59;4956740;29;20476;-85
2022/08/04 09:09:45;;;;;;;2.95;1.77;;;;;;;27.45;54.64;101178.44;4956222;29;20098;-84
2022/08/04 09:12:29;;;;;;;3.75;2.00;;;;;;;27.38;57.30;101179.84;4956713;29;20031;-84
2022/08/04 09:15:11;;;;;;;3.88;1.80;;;;;;;27.36;56.60;101187.16;4956448;29;20034;-85
2022/08/04 09:17:54;;;;;;;2.67;1.67;;;;;;;27.37;54.27;101187.00;4955859;29;20110;-84
2022/08/04 09:20:42;;;;;;;2.70;1.80;;;;;;;27.29;56.85;101192.13;4956852;29;20066;-85
2022/08/04 09:23:17;;;;;;;1.50;1.40;;;;;;;27.32;57.03;101188.34;4956172;29;20365;-84
2022/08/04 09:25:50;;;;;;;3.75;1.60;;;;;;;27.40;56.69;101188.56;4955806;29;20445;-84
2022/08/04 09:28:28;;;;;;;1.73;1.48;;;;;;;27.49;56.17;101187.84;4956592;29;20031;-85
2022/08/04 09:31:06;;;;;;;2.88;1.60;;;;;;;27.57;53.27;101196.06;4955611;29;20023;-85
2022/08/04 09:33:38;;;;;;;3.08;1.63;;;;;;;27.52;55.90;101198.25;4956421;29;20074;-84
2022/08/04 09:36:14;;;;;;;1.50;1.40;;;;;;;27.57;55.51;101197.88;4956126;29;20070;-83
2022/08/04 09:38:56;;;;;;;4.22;2.00;;;;;;;27.51;52.56;101204.56;4955894;29;20118;-84
2022/08/04 09:41:46;;;;;;;2.47;1.63;;;;;;;27.53;54.10;101213.28;4955993;29;20037;-86
2022/08/04 09:44:24;;;;;;;2.20;1.65;;;;;;;27.50;54.17;101208.19;4955150;28;20502;-84
2022/08/04 09:47:02;;;;;;;2.05;1.40;;;;;;;27.44;54.78;101217.53;4955275;29;20028;-84
2022/08/04 09:49:38;;;;;;;1.38;1.20;;;;;;;27.39;52.87;101226.84;4956057;29;20035;-85
2022/08/04 09:52:22;;;;;;;1.75;1.20;;;;;;;27.31;55.20;101229.28;4955181;29;20047;-84
2022/08/04 09:55:10;;;;;;;1.08;1.08;;;;;;;27.33;55.81;101238.84;4956221;29;20042;-84
2022/08/04 09:57:49;;;;;;;1.25;1.00;;;;;;;27.32;54.97;101231.00;4955764;29;20117;-84
2022/08/04 10:00:19;;;;;;;1.55;1.30;;;;;;;27.28;55.37;101235.72;4954992;29;20062;-84
2022/08/04 10:02:55;;;;;;;2.40;0.70;;;;;;;27.24;55.88;101248.44;4956184;29;20392;-85
2022/08/04 10:05:54;;;;;;;1.65;0.90;;;;;;;27.20;55.57;101252.31;4955702;29;20090;-84
2022/08/04 10:08:26;;;;;;;1.48;1.10;;;;;;;27.04;53.71;101259.81;4955723;29;20028;-84
2022/08/04 10:11:11;;;;;;;0.98;0.60;;;;;;;26.91;56.00;101260.78;4955652;29;20054;-84
2022/08/04 10:13:43;;;;;;;;;;;;;;;26.73;55.43;101248.88;4954841;29;20130;-85
2022/08/04 10:16:45;;;;;;;1.88;1.40;;;;;;;26.54;56.60;101252.13;4954996;29;19918;-84
2022/08/04 10:19:25;;;;;;;2.38;1.08;;;;;;;26.36;57.39;101237.44;4953580;29;20141;-85
2022/08/04 10:22:18;;;;;;;2.80;1.15;;;;;;;26.26;57.80;101262.22;4954999;29;20027;-85
2022/08/04 10:25:04;;;;;;;0.80;0.80;;;;;;;26.13;58.18;101313.66;4955487;29;20656;-84
2022/08/04 10:27:37;;;;;;;0.98;0.90;;;;;;;25.99;58.60;101333.28;4965379;23;20047;-84
2022/08/04 10:30:10;;;;;;;0.93;0.93;;;;;;;25.86;59.07;101357.22;4974466;28;20110;-85
2022/08/04 10:33:01;;;;;;;1.50;0.93;;;;;;;25.64;60.31;101334.03;4974696;28;20035;-84
2022/08/04 10:35:31;;;;;;;1.33;1.00;;;;;;;25.46;63.20;101324.69;4973877;28;20034;-85
2022/08/04 10:38:40;;;;;;;1.27;1.17;;;;;;;25.26;62.70;101326.91;4974513;28;20053;-85
2022/08/04 10:41:21;;;;;;;2.85;1.40;;;;;;;25.02;66.11;101321.53;4969412;28;20038;-87
2022/08/04 10:43:58;;;;;;;1.67;1.42;;;;;;;24.79;68.12;101297.41;4970614;28;20125;-88
2022/08/04 10:46:30;;;;;;;1.13;1.00;;;;;;;24.59;66.29;101283.66;4975116;28;20475;-88
2022/08/04 10:48:58;;;;;;;1.33;1.20;;;;;;;24.47;67.09;101263.28;4977544;28;20027;-88
2022/08/04 10:51:51;;;;;;;2.17;1.27;;;;;;;24.35;70.03;101259.63;4975317;28;20490;-88
2022/08/04 10:54:26;;;;;;;1.40;1.30;;;;;;;24.26;67.63;101239.91;4974094;28;20561;-87
2022/08/04 10:57:00;;;;;;;1.23;1.13;;;;;;;24.26;66.42;101239.03;4974263;28;20023;-88
2022/08/04 10:59:34;;;;;;;2.90;1.73;;;;;;;24.23;68.07;101250.72;4974800;28;20034;-88
2022/08/04 11:02:28;;;;;;;2.97;1.40;;;;;;;24.33;71.58;101256.22;4974196;28;20030;-88
2022/08/04 11:05:12;;;;;;;1.83;1.40;;;;;;;24.45;68.78;101255.41;4925782;28;20086;-87
2022/08/04 11:07:42;;;;;;;1.45;1.27;;;;;;;24.63;67.93;101268.38;4974563;28;20030;-87
2022/08/04 11:10:08;;;;;;;1.30;1.20;;;;;;;24.74;69.45;101276.50;4972979;28;20050;-86
2022/08/04 11:12:36;;;;;;;1.75;1.25;;;;;;;24.75;70.54;101283.50;4974282;28;20551;-86
2022/08/04 11:15:12;;;;;;;2.88;1.67;;;;;;;24.66;71.20;101278.78;4974039;28;20038;-86
2022/08/04 11:17:43;;;;;;;3.33;2.08;;;;;;;24.46;72.10;101265.06;4973196;28;20035;-86
2022/08/04 11:20:24;;;;;;;1.95;1.80;;;;;;;24.32;71.96;101254.56;4973479;28;20027;-85
2022/08/04 11:22:58;;;;;;;3.25;1.75;;;;;;;24.20;69.45;101254.41;4974218;28;20026;-86
2022/08/04 11:25:32;;;;;;;1.52;1.42;;;;;;;24.18;69.92;101251.00;4973204;28;20468;-85
2022/08/04 11:28:09;;;;;;;1.35;1.25;;;;;;;24.20;69.10;101272.13;4972936;28;20046;-86
2022/08/04 11:30:45;;;;;;;1.95;1.35;;;;;;;24.28;71.26;101263.66;4973191;28;20066;-86
2022/08/04 11:33:35;;;;;;;1.48;1.20;;;;;;;24.39;72.64;101255.81;4973992;28;20109;-86
2022/08/04 11:36:19;;;;;;;2.58;1.70;;;;;;;24.56;70.84;101245.84;4973751;28;20054;-85
2022/08/04 11:39:07;;;;;;;1.40;1.30;;;;;;;24.88;69.88;101248.16;4972901;28;20069;-85
2022/08/04 11:42:19;;;;;;;1.17;1.08;;;;;;;25.53;70.69;101251.56;4973934;28;20030;-86
2022/08/04 11:45:05;;;;;;;3.35;1.90;;;;;;;25.81;66.52;101250.41;4876043;29;20645;-85
2022/08/04 11:47:38;;;;;;;2.72;1.90;;;;;;;25.96;66.32;101253.72;4973735;28;20037;-86
2022/08/04 11:50:31;;;;;;;5.70;2.40;;;;;;;26.11;64.92;101246.44;4973404;28;20106;-85
2022/08/04 11:52:58;;;;;;;4.15;1.95;;;;;;;26.18;63.09;101260.13;4972741;28;20395;-85
2022/08/04 11:55:26;;;;;;;2.25;1.75;;;;;;;26.29;65.26;101264.66;4973416;28;20034;-85
2022/08/04 11:57:51;;;;;;;2.08;1.88;;;;;;;26.49;60.03;101249.81;4973462;28;20031;-86
2022/08/04 12:00:18;;;;;;;3.53;1.80;;;;;;;26.60;63.41;101249.84;4973480;28;20023;-85
2022/08/04 12:03:14;;;;;;;2.58;1.80;;;;;;;26.52;61.21;101247.75;4973723;28;20027;-85
2022/08/04 12:06:18;;;;;;;2.33;1.80;;;;;;;26.51;63.54;101251.38;4972936;28;20026;-85
2022/08/04 12:09:05;;;;;;;5.18;2.40;;;;;;;26.55;60.61;101259.13;4976630;28;20130;-85
2022/08/04 12:12:00;;;;;;;2.30;2.00;;;;;;;26.66;60.70;101252.03;4977573;28;20082;-86